Rochdale, United Kingdom
Current Conditions -  °F | °C
As of 1:50 AM on Wednesday 26 Nov 2014 (Local Time) from EGCC Reporting Station
Few Clouds Few Clouds  
Wind Chill: 38°   Ceiling: Unl
Heat Index: 43°   Visibility: 5mi
Dew Point: 43°   Wind: 8mph
Humidity: 100%   Direction: 50°NE
Pressure: 30"   Gusts: NA
Location:  53.62°N, 2.17°W
Report Text: EGCC 260150Z 05007KT 8000 FEW034 06/06 Q1016 RESHRA TEMPO RA
Loading
Personal Weather Stations






























Interactive Weather Map New forecast layout! Learn more

10-Day Weather Forecast

Advertisements
Track Severe Weather on mobile